createdAt,value
2018-04-07T00:00:23.972Z,1016.10
2018-04-07T00:01:23.940Z,1016.11
2018-04-07T00:02:23.912Z,1016.06
2018-04-07T00:03:23.885Z,1016.10
2018-04-07T00:04:23.856Z,1016.08
2018-04-07T00:05:23.826Z,1016.08
2018-04-07T00:06:23.798Z,1016.08
2018-04-07T00:07:23.771Z,1016.09
2018-04-07T00:08:23.744Z,1016.07
2018-04-07T00:09:23.714Z,1016.08
2018-04-07T00:10:23.685Z,1016.10
2018-04-07T00:11:23.657Z,1016.07
2018-04-07T00:12:23.631Z,1016.05
2018-04-07T00:13:23.600Z,1016.15
2018-04-07T00:14:23.572Z,1016.12
2018-04-07T00:15:23.549Z,1016.13
2018-04-07T00:16:23.516Z,1016.02
2018-04-07T00:17:23.492Z,1016.09
2018-04-07T00:18:23.458Z,1016.10
2018-04-07T00:19:23.430Z,1016.04
2018-04-07T00:20:23.402Z,1016.02
2018-04-07T00:21:23.372Z,1016.05
2018-04-07T00:22:23.348Z,1015.95
2018-04-07T00:23:23.317Z,1016.01
2018-04-07T00:24:23.291Z,1015.96
2018-04-07T00:25:23.259Z,1015.94
2018-04-07T00:26:23.231Z,1015.97
2018-04-07T00:27:23.202Z,1015.97
2018-04-07T00:28:23.175Z,1015.94
2018-04-07T00:29:23.144Z,1015.92
2018-04-07T00:30:23.127Z,1015.96
2018-04-07T00:31:23.094Z,1015.91
2018-04-07T00:32:23.060Z,1015.93
2018-04-07T00:33:23.034Z,1016.00
2018-04-07T00:34:23.003Z,1015.87
2018-04-07T00:35:22.975Z,1015.98
2018-04-07T00:36:22.947Z,1015.94
2018-04-07T00:37:22.917Z,1016.00
2018-04-07T00:38:22.890Z,1015.94
2018-04-07T00:39:22.860Z,1015.96
2018-04-07T00:40:22.832Z,1015.92
2018-04-07T00:41:22.804Z,1015.93
2018-04-07T00:42:22.776Z,1015.88
2018-04-07T00:43:22.746Z,1015.91
2018-04-07T00:44:22.718Z,1015.88
2018-04-07T00:45:22.691Z,1015.87
2018-04-07T00:46:22.662Z,1015.87
2018-04-07T00:47:22.635Z,1015.89
2018-04-07T00:48:22.607Z,1015.91
2018-04-07T00:49:22.575Z,1015.88
2018-04-07T00:50:22.547Z,1015.85
2018-04-07T00:51:22.519Z,1015.84
2018-04-07T00:52:22.490Z,1015.90
2018-04-07T00:53:22.463Z,1015.79
2018-04-07T00:54:22.435Z,1015.84
2018-04-07T00:55:22.405Z,1015.85
2018-04-07T00:56:22.376Z,1015.71
2018-04-07T00:57:22.347Z,1015.84
2018-04-07T00:58:22.321Z,1015.78
2018-04-07T00:59:22.290Z,1015.78
2018-04-07T01:00:22.262Z,1015.76
2018-04-07T01:01:22.233Z,1015.77
2018-04-07T01:02:22.205Z,1015.77
2018-04-07T01:03:22.177Z,1015.72
2018-04-07T01:04:22.151Z,1015.71
2018-04-07T01:05:22.123Z,1015.70
2018-04-07T01:06:22.139Z,1015.72
2018-04-07T01:07:22.064Z,1015.71
2018-04-07T01:08:22.035Z,1015.68
2018-04-07T01:09:22.009Z,1015.68
2018-04-07T01:10:21.980Z,1015.74
2018-04-07T01:11:21.954Z,1015.67
2018-04-07T01:12:21.922Z,1015.70
2018-04-07T01:13:21.891Z,1015.69
2018-04-07T01:14:21.865Z,1015.63
2018-04-07T01:15:21.835Z,1015.54
2018-04-07T01:16:21.806Z,1015.58
2018-04-07T01:17:21.782Z,1015.61
2018-04-07T01:18:21.749Z,1015.56
2018-04-07T01:19:21.721Z,1015.52
2018-04-07T01:20:21.693Z,1015.44
2018-04-07T01:21:21.663Z,1015.57
2018-04-07T01:22:21.669Z,1015.52
2018-04-07T01:23:21.617Z,1015.49
2018-04-07T01:24:21.579Z,1015.58
2018-04-07T01:25:21.551Z,1015.56
2018-04-07T01:26:21.521Z,1015.55
2018-04-07T01:27:21.493Z,1015.53
2018-04-07T01:28:21.465Z,1015.55
2018-04-07T01:29:21.448Z,1015.58
2018-04-07T01:30:21.409Z,1015.57
2018-04-07T01:31:21.388Z,1015.58
2018-04-07T01:32:21.369Z,1015.54
2018-04-07T01:33:21.322Z,1015.58
2018-04-07T01:34:21.298Z,1015.58
2018-04-07T01:35:21.268Z,1015.46
2018-04-07T01:36:21.243Z,1015.55
2018-04-07T01:37:21.208Z,1015.57
2018-04-07T01:38:21.180Z,1015.51
2018-04-07T01:39:21.152Z,1015.44
2018-04-07T01:40:21.123Z,1015.54
2018-04-07T01:41:21.101Z,1015.50
2018-04-07T01:42:21.070Z,1015.47
2018-04-07T01:43:21.053Z,1015.42
2018-04-07T01:44:21.013Z,1015.44
2018-04-07T01:45:20.980Z,1015.37
2018-04-07T01:46:20.956Z,1015.39
2018-04-07T01:47:20.924Z,1015.35
2018-04-07T01:48:20.896Z,1015.24
2018-04-07T01:49:20.868Z,1015.27
2018-04-07T01:50:20.838Z,1015.29
2018-04-07T01:51:20.809Z,1015.24
2018-04-07T01:52:20.781Z,1015.22
2018-04-07T01:53:20.752Z,1015.21
2018-04-07T01:54:20.724Z,1015.10
2018-04-07T01:55:20.696Z,1015.13
2018-04-07T01:56:20.667Z,1015.12
2018-04-07T01:57:20.638Z,1015.06
2018-04-07T01:58:20.614Z,1015.08
2018-04-07T01:59:20.582Z,1015.12
2018-04-07T02:00:20.553Z,1015.09
2018-04-07T02:01:20.524Z,1015.10
2018-04-07T02:02:20.496Z,1015.09
2018-04-07T02:03:20.467Z,1015.05
2018-04-07T02:04:20.443Z,1015.12
2018-04-07T02:05:20.409Z,1015.02
2018-04-07T02:06:20.385Z,1015.05
2018-04-07T02:07:20.353Z,1015.02
2018-04-07T02:08:20.325Z,1015.03
2018-04-07T02:09:20.295Z,1015.03
2018-04-07T02:10:20.273Z,1014.92
2018-04-07T02:11:20.239Z,1014.96
2018-04-07T02:12:20.211Z,1014.99
2018-04-07T02:13:20.181Z,1014.91
2018-04-07T02:14:20.154Z,1014.96
2018-04-07T02:15:20.127Z,1014.94
2018-04-07T02:16:20.097Z,1014.97
2018-04-07T02:17:20.067Z,1014.94
2018-04-07T02:18:20.039Z,1014.91
2018-04-07T02:19:20.012Z,1014.95
2018-04-07T02:20:19.982Z,1014.95
2018-04-07T02:21:19.958Z,1014.99
2018-04-07T02:22:19.925Z,1015.02
2018-04-07T02:23:19.901Z,1015.00
2018-04-07T02:24:19.871Z,1015.01
2018-04-07T02:25:19.838Z,1015.01
2018-04-07T02:26:19.810Z,1014.98
2018-04-07T02:27:19.785Z,1015.03
2018-04-07T02:28:19.753Z,1015.01
2018-04-07T02:29:19.726Z,1014.87
2018-04-07T02:30:19.700Z,1014.99
2018-04-07T02:31:19.669Z,1015.02
2018-04-07T02:32:19.644Z,1014.90
2018-04-07T02:33:19.614Z,1014.99
2018-04-07T02:34:19.597Z,1015.02
2018-04-07T02:35:19.555Z,1014.95
2018-04-07T02:36:19.527Z,1014.96
2018-04-07T02:37:19.496Z,1014.88
2018-04-07T02:38:19.471Z,1014.99
2018-04-07T02:39:19.443Z,1014.91
2018-04-07T02:40:19.412Z,1014.87
2018-04-07T02:41:19.383Z,1014.92
2018-04-07T02:42:19.353Z,1014.92
2018-04-07T02:43:19.326Z,1014.83
2018-04-07T02:44:19.300Z,1014.93
2018-04-07T02:45:19.270Z,1014.92
2018-04-07T02:46:19.238Z,1014.89
2018-04-07T02:47:19.211Z,1014.92
2018-04-07T02:48:19.184Z,1014.95
2018-04-07T02:49:19.156Z,1014.97
2018-04-07T02:50:19.208Z,1014.94
2018-04-07T02:51:19.098Z,1014.88
2018-04-07T02:52:19.069Z,1014.90
2018-04-07T02:53:19.037Z,1015.00
2018-04-07T02:54:19.013Z,1014.98
2018-04-07T02:55:18.980Z,1015.05
2018-04-07T02:56:18.953Z,1015.06
2018-04-07T02:57:18.923Z,1015.06
2018-04-07T02:58:18.895Z,1014.99
2018-04-07T02:59:18.868Z,1015.10
2018-04-07T03:00:18.843Z,1015.03
2018-04-07T03:01:18.811Z,1015.08
2018-04-07T03:02:18.781Z,1015.14
2018-04-07T03:03:18.751Z,1015.10
2018-04-07T03:04:18.723Z,1015.11
2018-04-07T03:05:18.694Z,1015.14
2018-04-07T03:06:18.665Z,1015.15
2018-04-07T03:07:18.636Z,1015.10
2018-04-07T03:08:18.612Z,1015.12
2018-04-07T03:09:18.580Z,1015.12
2018-04-07T03:10:18.552Z,1015.13
2018-04-07T03:11:18.524Z,1015.11
2018-04-07T03:12:18.492Z,1015.17
2018-04-07T03:13:18.462Z,1015.13
2018-04-07T03:14:18.433Z,1015.13
2018-04-07T03:15:18.407Z,1015.12
2018-04-07T03:16:18.376Z,1015.12
2018-04-07T03:17:18.350Z,1015.14
2018-04-07T03:18:18.318Z,1015.09
2018-04-07T03:19:18.290Z,1015.13
2018-04-07T03:20:18.261Z,1015.19
2018-04-07T03:21:18.234Z,1015.12
2018-04-07T03:22:18.203Z,1015.14
2018-04-07T03:23:18.175Z,1015.15
2018-04-07T03:24:18.147Z,1015.19
2018-04-07T03:25:18.118Z,1015.17
2018-04-07T03:26:18.093Z,1015.16
2018-04-07T03:27:18.059Z,1015.18
2018-04-07T03:28:18.034Z,1015.12
2018-04-07T03:29:18.001Z,1015.12
2018-04-07T03:30:17.974Z,1015.12
2018-04-07T03:31:17.957Z,1015.13
2018-04-07T03:32:17.915Z,1015.13
2018-04-07T03:33:17.885Z,1015.08
2018-04-07T03:34:17.858Z,1014.95
2018-04-07T03:35:17.840Z,1014.97
2018-04-07T03:36:17.800Z,1015.10
2018-04-07T03:37:17.770Z,1015.05
2018-04-07T03:38:17.741Z,1014.96
2018-04-07T03:39:17.712Z,1014.98
2018-04-07T03:40:17.684Z,1014.98
2018-04-07T03:41:17.654Z,1015.08
2018-04-07T03:42:17.626Z,1014.98
2018-04-07T03:43:17.597Z,1015.01
2018-04-07T03:44:17.569Z,1015.11
2018-04-07T03:45:17.541Z,1015.10
2018-04-07T03:46:17.509Z,1015.07
2018-04-07T03:47:17.482Z,1015.11
2018-04-07T03:48:17.457Z,1015.07
2018-04-07T03:49:17.422Z,1015.03
2018-04-07T03:50:17.401Z,1015.07
2018-04-07T03:51:17.365Z,1015.04
2018-04-07T03:52:17.336Z,1014.98
2018-04-07T03:53:17.306Z,1015.00
2018-04-07T03:54:17.277Z,1015.02
2018-04-07T03:55:17.249Z,1014.98
2018-04-07T03:56:17.221Z,1014.87
2018-04-07T03:57:17.198Z,1015.00
2018-04-07T03:58:17.163Z,1014.98
2018-04-07T03:59:17.132Z,1014.91
2018-04-07T04:00:17.103Z,1014.89
2018-04-07T04:01:17.077Z,1014.88
2018-04-07T04:02:17.046Z,1014.90
2018-04-07T04:03:17.017Z,1014.89
2018-04-07T04:04:16.988Z,1014.82
2018-04-07T04:05:16.963Z,1014.79
2018-04-07T04:06:16.929Z,1014.74
2018-04-07T04:07:16.902Z,1014.81
2018-04-07T04:08:16.872Z,1014.87
2018-04-07T04:09:16.843Z,1014.81
2018-04-07T04:10:16.816Z,1014.83
2018-04-07T04:11:16.788Z,1014.86
2018-04-07T04:12:16.755Z,1014.87
2018-04-07T04:13:16.726Z,1014.86
2018-04-07T04:14:16.699Z,1014.80
2018-04-07T04:15:16.668Z,1014.90
2018-04-07T04:16:16.639Z,1014.87
2018-04-07T04:17:16.613Z,1014.83
2018-04-07T04:18:16.580Z,1014.87
2018-04-07T04:19:16.553Z,1014.91
2018-04-07T04:20:16.524Z,1014.87
2018-04-07T04:21:16.493Z,1014.73
2018-04-07T04:22:16.465Z,1014.72
2018-04-07T04:23:16.436Z,1014.71
2018-04-07T04:24:16.407Z,1014.70
2018-04-07T04:25:16.377Z,1014.63
2018-04-07T04:26:16.348Z,1014.65
2018-04-07T04:27:16.324Z,1014.71
2018-04-07T04:28:16.292Z,1014.69
2018-04-07T04:29:16.261Z,1014.70
2018-04-07T04:30:16.231Z,1014.67
2018-04-07T04:31:16.205Z,1014.69
2018-04-07T04:32:16.174Z,1014.64
2018-04-07T04:33:16.146Z,1014.62
2018-04-07T04:34:16.117Z,1014.64
2018-04-07T04:35:16.088Z,1014.61
2018-04-07T04:36:16.059Z,1014.57
2018-04-07T04:37:16.027Z,1014.59
2018-04-07T04:38:15.999Z,1014.53
2018-04-07T04:39:15.971Z,1014.52
2018-04-07T04:40:15.941Z,1014.47
2018-04-07T04:41:15.911Z,1014.40
2018-04-07T04:42:15.882Z,1014.47
2018-04-07T04:43:15.866Z,1014.45
2018-04-07T04:44:15.828Z,1014.44
2018-04-07T04:45:15.795Z,1014.41
2018-04-07T04:46:15.767Z,1014.45
2018-04-07T04:47:15.737Z,1014.40
2018-04-07T04:48:15.709Z,1014.25
2018-04-07T04:49:15.679Z,1014.40
2018-04-07T04:50:15.650Z,1014.43
2018-04-07T04:51:15.623Z,1014.44
2018-04-07T04:52:15.593Z,1014.40
2018-04-07T04:53:15.562Z,1014.41
2018-04-07T04:54:15.537Z,1014.50
2018-04-07T04:55:15.512Z,1014.34
2018-04-07T04:56:15.477Z,1014.40
2018-04-07T04:57:15.448Z,1014.45
2018-04-07T04:58:15.434Z,1014.47
2018-04-07T04:59:15.389Z,1014.42
2018-04-07T05:00:15.361Z,1014.49
2018-04-07T05:01:15.331Z,1014.54
2018-04-07T05:02:15.302Z,1014.58
2018-04-07T05:03:15.274Z,1014.42
2018-04-07T05:04:15.244Z,1014.41
2018-04-07T05:05:15.215Z,1014.54
2018-04-07T05:06:15.188Z,1014.55
2018-04-07T05:07:15.158Z,1014.55
2018-04-07T05:08:15.130Z,1014.56
2018-04-07T05:09:15.101Z,1014.57
2018-04-07T05:10:15.073Z,1014.51
2018-04-07T05:11:15.044Z,1014.41
2018-04-07T05:12:15.015Z,1014.57
2018-04-07T05:13:14.989Z,1014.55
2018-04-07T05:14:14.956Z,1014.41
2018-04-07T05:15:14.928Z,1014.47
2018-04-07T05:16:14.900Z,1014.46
2018-04-07T05:17:14.870Z,1014.41
2018-04-07T05:18:14.842Z,1014.47
2018-04-07T05:19:14.816Z,1014.50
2018-04-07T05:20:14.785Z,1014.51
2018-04-07T05:21:14.756Z,1014.42
2018-04-07T05:22:14.758Z,1014.38
2018-04-07T05:23:14.699Z,1014.49
2018-04-07T05:24:14.671Z,1014.41
2018-04-07T05:25:14.642Z,1014.21
2018-04-07T05:26:14.614Z,1014.57
2018-04-07T05:27:14.586Z,1014.43
2018-04-07T05:28:14.559Z,1014.43
2018-04-07T05:29:14.531Z,1014.48
2018-04-07T05:30:14.501Z,1014.44
2018-04-07T05:31:14.473Z,1014.36
2018-04-07T05:32:14.447Z,1014.41
2018-04-07T05:33:14.417Z,1014.25
2018-04-07T05:34:14.392Z,1014.37
2018-04-07T05:35:14.362Z,1014.08
2018-04-07T05:36:14.334Z,1014.31
2018-04-07T05:37:14.306Z,1014.25
2018-04-07T05:38:14.277Z,1014.26
2018-04-07T05:39:14.250Z,1014.29
2018-04-07T05:40:14.223Z,1014.23
2018-04-07T05:41:14.196Z,1014.25
2018-04-07T05:42:14.169Z,1014.15
2018-04-07T05:43:14.140Z,1014.09
2018-04-07T05:44:14.114Z,1014.26
2018-04-07T05:45:14.084Z,1014.23
2018-04-07T05:46:14.059Z,1014.16
2018-04-07T05:47:14.029Z,1014.26
2018-04-07T05:48:14.002Z,1014.28
2018-04-07T05:49:13.973Z,1014.35
2018-04-07T05:50:13.946Z,1014.24
2018-04-07T05:51:13.922Z,1014.23
2018-04-07T05:52:13.892Z,1014.09
2018-04-07T05:53:13.862Z,1014.30
2018-04-07T05:54:13.834Z,1014.15
2018-04-07T05:55:13.809Z,1014.21
2018-04-07T05:56:13.785Z,1014.21
2018-04-07T05:57:13.755Z,1014.21
2018-04-07T05:58:13.725Z,1014.18
2018-04-07T05:59:13.699Z,1014.12
2018-04-07T06:00:13.670Z,1014.26
2018-04-07T06:01:13.642Z,1014.30
2018-04-07T06:02:13.618Z,1014.20
2018-04-07T06:03:13.587Z,1014.34
2018-04-07T06:04:13.561Z,1014.34
2018-04-07T06:05:13.532Z,1014.33
2018-04-07T06:06:13.505Z,1014.32
2018-04-07T06:07:13.478Z,1014.27
2018-04-07T06:08:13.451Z,1014.40
2018-04-07T06:09:13.428Z,1014.37
2018-04-07T06:10:13.397Z,1014.39
2018-04-07T06:11:13.373Z,1014.37
2018-04-07T06:12:13.343Z,1014.46
2018-04-07T06:13:13.315Z,1014.41
2018-04-07T06:14:13.288Z,1014.47
2018-04-07T06:15:13.262Z,1014.48
2018-04-07T06:16:13.235Z,1014.60
2018-04-07T06:17:13.208Z,1014.72
2018-04-07T06:18:13.180Z,1014.75
2018-04-07T06:19:13.156Z,1014.85
2018-04-07T06:20:13.132Z,1014.66
2018-04-07T06:21:13.100Z,1014.54
2018-04-07T06:22:13.074Z,1014.60
2018-04-07T06:23:13.048Z,1014.12
2018-04-07T06:24:13.026Z,1014.45
2018-04-07T06:25:12.994Z,1014.41
2018-04-07T06:26:12.971Z,1014.48
2018-04-07T06:27:12.941Z,1014.53
2018-04-07T06:28:12.921Z,1014.49
2018-04-07T06:29:12.893Z,1014.51
2018-04-07T06:30:12.864Z,1014.44
2018-04-07T06:31:12.838Z,1014.48
2018-04-07T06:32:12.813Z,1014.28
2018-04-07T06:33:12.784Z,1014.45
2018-04-07T06:34:12.758Z,1014.48
2018-04-07T06:35:12.733Z,1014.45
2018-04-07T06:36:12.707Z,1014.40
2018-04-07T06:37:12.683Z,1014.34
2018-04-07T06:38:12.657Z,1014.35
2018-04-07T06:39:12.629Z,1014.35
2018-04-07T06:40:12.604Z,1014.38
2018-04-07T06:41:12.576Z,1014.33
2018-04-07T06:42:12.552Z,1014.37
2018-04-07T06:43:12.526Z,1014.02
2018-04-07T06:44:12.501Z,1014.37
2018-04-07T06:45:12.473Z,1014.24
2018-04-07T06:46:12.449Z,1014.39
2018-04-07T06:47:12.423Z,1014.26
2018-04-07T06:48:12.398Z,1014.33
2018-04-07T06:49:12.372Z,1014.22
2018-04-07T06:50:12.347Z,1014.15
2018-04-07T06:51:12.321Z,1014.18
2018-04-07T06:52:12.296Z,1014.18
2018-04-07T06:53:12.271Z,1014.22
2018-04-07T06:54:12.246Z,1014.26
2018-04-07T06:55:12.222Z,1014.32
2018-04-07T06:56:12.196Z,1014.22
2018-04-07T06:57:12.174Z,1014.34
2018-04-07T06:58:12.145Z,1014.18
2018-04-07T06:59:12.121Z,1014.14
2018-04-07T07:00:12.096Z,1014.30
2018-04-07T07:01:12.070Z,1014.29
2018-04-07T07:02:12.046Z,1014.56
2018-04-07T07:03:12.021Z,1014.65
2018-04-07T07:04:12.000Z,1014.67
2018-04-07T07:05:11.979Z,1014.78
2018-04-07T07:06:11.965Z,1014.91
2018-04-07T07:07:11.925Z,1014.95
2018-04-07T07:08:11.898Z,1015.02
2018-04-07T07:09:11.873Z,1015.14
2018-04-07T07:10:11.850Z,1015.29
2018-04-07T07:11:11.824Z,1015.39
2018-04-07T07:12:11.800Z,1015.49
2018-04-07T07:13:11.784Z,1015.51
2018-04-07T07:14:11.753Z,1015.39
2018-04-07T07:15:11.729Z,1015.42
2018-04-07T07:16:11.707Z,1015.54
2018-04-07T07:17:11.680Z,1015.51
2018-04-07T07:18:11.657Z,1015.57
2018-04-07T07:19:11.634Z,1015.43
2018-04-07T07:20:11.610Z,1015.46
2018-04-07T07:21:11.587Z,1015.45
2018-04-07T07:22:11.564Z,1015.36
2018-04-07T07:23:11.542Z,1015.34
2018-04-07T07:24:11.519Z,1015.60
2018-04-07T07:25:11.495Z,1015.44
2018-04-07T07:26:11.471Z,1015.57
2018-04-07T07:27:11.449Z,1015.64
2018-04-07T07:28:11.428Z,1015.64
2018-04-07T07:29:11.404Z,1015.42
2018-04-07T07:30:11.386Z,1015.53
2018-04-07T07:31:11.358Z,1015.79
2018-04-07T07:32:11.336Z,1015.55
2018-04-07T07:33:11.313Z,1015.72
2018-04-07T07:34:11.292Z,1015.70
2018-04-07T07:35:11.271Z,1015.80
2018-04-07T07:36:11.248Z,1015.78
2018-04-07T07:37:11.225Z,1015.93
2018-04-07T07:38:11.203Z,1016.05
2018-04-07T07:39:11.181Z,1015.86
2018-04-07T07:40:11.161Z,1016.17
2018-04-07T07:41:11.143Z,1016.13
2018-04-07T07:42:11.136Z,1015.97
2018-04-07T07:43:11.096Z,1016.08
2018-04-07T07:44:11.071Z,1015.96
2018-04-07T07:45:11.050Z,1015.91
2018-04-07T07:46:11.029Z,1015.87
2018-04-07T07:47:11.010Z,1015.91
2018-04-07T07:48:10.987Z,1015.89
2018-04-07T07:49:10.966Z,1015.42
2018-04-07T07:50:10.954Z,1015.35
2018-04-07T07:51:10.922Z,1015.57
2018-04-07T07:52:10.902Z,1015.69
2018-04-07T07:53:10.880Z,1015.59
2018-04-07T07:54:10.864Z,1015.49
2018-04-07T07:55:10.838Z,1015.14
2018-04-07T07:56:10.822Z,1015.49
2018-04-07T07:57:10.799Z,1015.51
2018-04-07T07:58:10.776Z,1015.29
2018-04-07T07:59:10.755Z,1015.64
2018-04-07T08:00:10.734Z,1015.43
2018-04-07T08:01:10.713Z,1015.46
2018-04-07T08:02:10.692Z,1015.23
2018-04-07T08:03:10.673Z,1015.12
2018-04-07T08:04:10.653Z,1015.50
2018-04-07T08:05:10.640Z,1015.45
2018-04-07T08:06:10.609Z,1015.48
2018-04-07T08:07:10.590Z,1015.25
2018-04-07T08:08:10.569Z,1015.40
2018-04-07T08:09:10.547Z,1015.49
2018-04-07T08:10:10.527Z,1015.52
2018-04-07T08:11:10.507Z,1015.66
2018-04-07T08:12:10.486Z,1015.62
2018-04-07T08:13:10.465Z,1015.61
2018-04-07T08:14:10.448Z,1015.49
2018-04-07T08:15:10.425Z,1015.55
2018-04-07T08:16:10.405Z,1015.55
2018-04-07T08:17:10.384Z,1015.53
2018-04-07T08:18:10.364Z,1015.61
2018-04-07T08:19:10.344Z,1015.47
2018-04-07T08:20:10.326Z,1015.49
2018-04-07T08:21:10.304Z,1015.42
2018-04-07T08:22:10.285Z,1015.35
2018-04-07T08:23:10.264Z,1014.93
2018-04-07T08:24:10.247Z,1015.28
2018-04-07T08:25:10.225Z,1015.14
2018-04-07T08:26:10.217Z,1015.10
2018-04-07T08:27:10.185Z,1015.00
2018-04-07T08:28:10.166Z,1014.90
2018-04-07T08:29:10.145Z,1015.00
2018-04-07T08:30:10.138Z,1014.85
2018-04-07T08:31:10.106Z,1014.70
2018-04-07T08:32:10.139Z,1014.95
2018-04-07T08:33:10.068Z,1014.80
2018-04-07T08:34:10.047Z,1014.91
2018-04-07T08:35:10.028Z,1015.10
2018-04-07T08:36:10.008Z,1015.14
2018-04-07T08:37:14.776Z,1014.90
2018-04-07T08:38:09.968Z,1014.65
2018-04-07T08:39:09.949Z,1014.82
2018-04-07T08:40:09.930Z,1015.27
2018-04-07T08:41:09.919Z,1015.11
2018-04-07T08:42:09.890Z,1015.14
2018-04-07T08:43:09.872Z,1015.20
2018-04-07T08:44:09.854Z,1015.27
2018-04-07T08:45:09.832Z,1015.22
2018-04-07T08:46:09.813Z,1015.09
2018-04-07T08:47:09.794Z,1015.07
2018-04-07T08:48:09.776Z,1015.12
2018-04-07T08:49:09.756Z,1015.11
2018-04-07T08:50:09.777Z,1015.02
2018-04-07T08:51:09.773Z,1014.97
2018-04-07T08:52:09.702Z,1014.81
2018-04-07T08:53:09.683Z,1014.93
2018-04-07T08:54:09.669Z,1014.66
2018-04-07T08:55:09.647Z,1014.95
2018-04-07T08:56:09.629Z,1014.86
2018-04-07T08:57:09.612Z,1014.82
2018-04-07T08:58:09.594Z,1014.86
2018-04-07T08:59:09.575Z,1014.63
2018-04-07T09:00:09.557Z,1014.57
2018-04-07T09:01:09.546Z,1014.61
2018-04-07T09:02:09.522Z,1014.51
2018-04-07T09:03:09.503Z,1014.34
2018-04-07T09:04:09.491Z,1014.74
2018-04-07T09:05:09.490Z,1014.71
2018-04-07T09:06:09.475Z,1014.48
2018-04-07T09:07:09.432Z,1014.02
2018-04-07T09:08:09.417Z,1013.73
2018-04-07T09:09:09.396Z,1013.54
2018-04-07T09:10:09.378Z,1013.32
2018-04-07T09:11:09.360Z,1013.23
2018-04-07T09:12:09.343Z,1013.24
2018-04-07T09:13:09.327Z,1012.87
2018-04-07T09:14:09.307Z,1013.08
2018-04-07T09:15:09.290Z,1013.03
2018-04-07T09:16:09.273Z,1013.04
2018-04-07T09:17:09.253Z,1012.88
2018-04-07T09:18:09.242Z,1012.95
2018-04-07T09:19:09.219Z,1012.92
2018-04-07T09:20:09.202Z,1012.98
2018-04-07T09:21:09.189Z,1012.89
2018-04-07T09:22:09.167Z,1012.71
2018-04-07T09:23:09.150Z,1012.63
2018-04-07T09:24:09.134Z,1012.80
2018-04-07T09:25:09.115Z,1012.86
2018-04-07T09:26:09.098Z,1012.73
2018-04-07T09:27:09.081Z,1012.82
2018-04-07T09:28:09.067Z,1012.74
2018-04-07T09:29:09.048Z,1012.60
2018-04-07T09:30:09.034Z,1012.52
2018-04-07T09:31:09.013Z,1012.63
2018-04-07T09:32:08.997Z,1012.62
2018-04-07T09:33:08.979Z,1012.56
2018-04-07T09:34:08.962Z,1012.47
2018-04-07T09:35:08.945Z,1012.53
2018-04-07T09:36:08.928Z,1012.46
2018-04-07T09:37:08.911Z,1012.39
2018-04-07T09:38:08.908Z,1012.45
2018-04-07T09:39:08.878Z,1012.48
2018-04-07T09:40:08.861Z,1012.44
2018-04-07T09:41:08.843Z,1012.36
2018-04-07T09:42:08.842Z,1012.34
2018-04-07T09:43:08.812Z,1012.39
2018-04-07T09:44:08.793Z,1012.37
2018-04-07T09:45:08.776Z,1012.43
2018-04-07T09:46:08.761Z,1012.46
2018-04-07T09:47:08.742Z,1012.49
2018-04-07T09:48:08.728Z,1012.52
2018-04-07T09:49:08.709Z,1012.50
2018-04-07T09:50:08.693Z,1012.33
2018-04-07T09:51:08.679Z,1012.49
2018-04-07T09:52:08.662Z,1012.44
2018-04-07T09:53:08.643Z,1012.38
2018-04-07T09:54:08.626Z,1012.42
2018-04-07T09:55:08.610Z,1012.53
2018-04-07T09:56:08.594Z,1012.48
2018-04-07T09:57:08.577Z,1012.46
2018-04-07T09:58:08.561Z,1012.47
2018-04-07T09:59:08.556Z,1012.54
2018-04-07T10:00:08.529Z,1012.35
2018-04-07T10:01:08.514Z,1012.24
2018-04-07T10:02:08.500Z,1012.54
2018-04-07T10:03:08.481Z,1012.46
2018-04-07T10:04:08.465Z,1012.49
2018-04-07T10:05:08.450Z,1012.33
2018-04-07T10:06:08.433Z,1012.54
2018-04-07T10:07:08.423Z,1012.52
2018-04-07T10:08:08.403Z,1012.39
2018-04-07T10:09:08.385Z,1012.57
2018-04-07T10:10:08.369Z,1012.52
2018-04-07T10:11:08.353Z,1012.50
2018-04-07T10:12:08.337Z,1012.57
2018-04-07T10:13:08.320Z,1012.49
2018-04-07T10:14:08.305Z,1012.54
2018-04-07T10:15:08.296Z,1012.57
2018-04-07T10:16:08.276Z,1012.55
2018-04-07T10:17:08.261Z,1012.44
2018-04-07T10:18:08.241Z,1012.42
2018-04-07T10:19:08.225Z,1012.44
2018-04-07T10:20:08.210Z,1012.40
2018-04-07T10:21:08.193Z,1012.41
2018-04-07T10:22:08.189Z,1012.45
2018-04-07T10:23:08.163Z,1012.36
2018-04-07T10:24:08.145Z,1012.37
2018-04-07T10:25:08.128Z,1012.39
2018-04-07T10:26:08.111Z,1012.36
2018-04-07T10:27:08.096Z,1012.38
2018-04-07T10:28:08.097Z,1012.41
2018-04-07T10:29:08.066Z,1012.33
2018-04-07T10:30:08.048Z,1012.22
2018-04-07T10:31:08.030Z,1012.49
2018-04-07T10:32:08.014Z,1012.23
2018-04-07T10:33:08.001Z,1012.46
2018-04-07T10:34:07.987Z,1012.26
2018-04-07T10:35:07.969Z,1012.27
2018-04-07T10:36:07.951Z,1011.85
2018-04-07T10:37:07.934Z,1012.32
2018-04-07T10:38:07.920Z,1012.29
2018-04-07T10:39:07.903Z,1012.25
2018-04-07T10:40:07.889Z,1012.26
2018-04-07T10:41:07.871Z,1012.26
2018-04-07T10:42:07.861Z,1012.23
2018-04-07T10:43:07.840Z,1012.27
2018-04-07T10:44:07.825Z,1012.06
2018-04-07T10:45:07.809Z,1012.23
2018-04-07T10:46:07.793Z,1012.23
2018-04-07T10:47:07.777Z,1012.16
2018-04-07T10:48:07.767Z,1012.18
2018-04-07T10:49:07.744Z,1012.21
2018-04-07T10:50:07.730Z,1012.37
2018-04-07T10:51:07.719Z,1012.20
2018-04-07T10:52:07.697Z,1012.23
2018-04-07T10:53:07.683Z,1012.31
2018-04-07T10:54:07.666Z,1012.28
2018-04-07T10:55:07.650Z,1012.27
2018-04-07T10:56:07.633Z,1012.30
2018-04-07T10:57:07.617Z,1012.41
2018-04-07T10:58:07.601Z,1012.47
2018-04-07T10:59:07.586Z,1012.50
2018-04-07T11:00:07.596Z,1012.48
2018-04-07T11:01:07.555Z,1012.57
2018-04-07T11:02:07.539Z,1012.32
2018-04-07T11:03:07.524Z,1012.40
2018-04-07T11:04:07.511Z,1012.33
2018-04-07T11:05:07.497Z,1012.49
2018-04-07T11:06:07.539Z,1012.60
2018-04-07T11:07:07.465Z,1012.40
2018-04-07T11:08:07.447Z,1012.76
2018-04-07T11:09:07.432Z,1012.84
2018-04-07T11:10:07.415Z,1012.89
2018-04-07T11:11:07.404Z,1012.91
2018-04-07T11:12:07.385Z,1012.93
2018-04-07T11:13:07.377Z,1013.02
2018-04-07T11:14:07.355Z,1013.06
2018-04-07T11:15:07.340Z,1013.16
2018-04-07T11:16:07.325Z,1013.00
2018-04-07T11:17:07.310Z,1013.12
2018-04-07T11:18:07.295Z,1013.02
2018-04-07T11:19:07.288Z,1012.96
2018-04-07T11:20:07.266Z,1012.76
2018-04-07T11:21:07.256Z,1012.81
2018-04-07T11:22:07.239Z,1012.75
2018-04-07T11:23:07.223Z,1012.79
2018-04-07T11:24:07.208Z,1012.65
2018-04-07T11:25:07.193Z,1012.60
2018-04-07T11:26:07.178Z,1012.69
2018-04-07T11:27:07.164Z,1012.73
2018-04-07T11:28:07.151Z,1012.47
2018-04-07T11:29:07.133Z,1012.59
2018-04-07T11:30:07.120Z,1012.48
2018-04-07T11:31:07.105Z,1012.72
2018-04-07T11:32:07.090Z,1012.77
2018-04-07T11:33:07.075Z,1012.69
2018-04-07T11:34:07.067Z,1012.64
2018-04-07T11:35:07.047Z,1012.57
2018-04-07T11:36:07.032Z,1012.55
2018-04-07T11:37:07.018Z,1012.44
2018-04-07T11:38:07.004Z,1012.43
2018-04-07T11:39:07.033Z,1012.46
2018-04-07T11:40:07.475Z,1012.31
2018-04-07T11:41:06.959Z,1012.29
2018-04-07T11:42:06.946Z,1012.24
2018-04-07T11:43:06.933Z,1012.11
2018-04-07T11:44:06.918Z,1012.22
2018-04-07T11:45:06.923Z,1012.16
2018-04-07T11:46:06.889Z,1012.20
2018-04-07T11:47:06.876Z,1012.16
2018-04-07T11:48:06.863Z,1011.97
2018-04-07T11:49:06.851Z,1011.90
2018-04-07T11:50:06.834Z,1011.92
2018-04-07T11:51:06.823Z,1011.96
2018-04-07T11:52:06.814Z,1011.99
2018-04-07T11:53:06.808Z,1011.97
2018-04-07T11:54:06.778Z,1011.63
2018-04-07T11:55:06.768Z,1011.89
2018-04-07T11:56:06.756Z,1011.81
2018-04-07T11:57:06.735Z,1011.76
2018-04-07T11:58:06.733Z,1011.73
2018-04-07T11:59:06.714Z,1011.74
2018-04-07T12:00:06.693Z,1011.84
2018-04-07T12:01:06.678Z,1011.90
2018-04-07T12:02:06.665Z,1011.80
2018-04-07T12:03:06.649Z,1011.90
2018-04-07T12:04:06.634Z,1011.77
2018-04-07T12:05:06.620Z,1011.80